sensor_id;sensor_type;location;lat;lon;timestamp;P1;durP1;ratioP1;P2;durP2;ratioP2
15635;SDS011;7917;50.818;6.972;2023-04-15T00:01:39;8.25;;;6.07;;
15635;SDS011;7917;50.818;6.972;2023-04-15T00:04:08;9.30;;;6.00;;
15635;SDS011;7917;50.818;6.972;2023-04-15T00:06:36;11.20;;;6.43;;
15635;SDS011;7917;50.818;6.972;2023-04-15T00:09:03;10.90;;;5.68;;
15635;SDS011;7917;50.818;6.972;2023-04-15T00:11:30;7.53;;;5.50;;
15635;SDS011;7917;50.818;6.972;2023-04-15T00:13:57;8.27;;;6.55;;
15635;SDS011;7917;50.818;6.972;2023-04-15T00:16:25;8.15;;;6.13;;
15635;SDS011;7917;50.818;6.972;2023-04-15T00:18:52;9.18;;;6.28;;
15635;SDS011;7917;50.818;6.972;2023-04-15T00:21:19;9.68;;;6.00;;
15635;SDS011;7917;50.818;6.972;2023-04-15T00:23:46;11.05;;;6.13;;
15635;SDS011;7917;50.818;6.972;2023-04-15T00:26:16;11.20;;;6.93;;
15635;SDS011;7917;50.818;6.972;2023-04-15T00:28:43;12.35;;;7.60;;
15635;SDS011;7917;50.818;6.972;2023-04-15T00:31:10;12.77;;;7.28;;
15635;SDS011;7917;50.818;6.972;2023-04-15T00:33:37;13.48;;;5.93;;
15635;SDS011;7917;50.818;6.972;2023-04-15T00:36:05;9.75;;;6.28;;
15635;SDS011;7917;50.818;6.972;2023-04-15T00:38:33;14.18;;;6.28;;
15635;SDS011;7917;50.818;6.972;2023-04-15T00:41:00;12.10;;;6.32;;
15635;SDS011;7917;50.818;6.972;2023-04-15T00:43:29;9.95;;;5.97;;
15635;SDS011;7917;50.818;6.972;2023-04-15T00:45:55;9.52;;;5.68;;
15635;SDS011;7917;50.818;6.972;2023-04-15T00:48:25;9.13;;;5.95;;
15635;SDS011;7917;50.818;6.972;2023-04-15T00:50:56;14.70;;;6.40;;
15635;SDS011;7917;50.818;6.972;2023-04-15T00:53:24;12.55;;;6.05;;
15635;SDS011;7917;50.818;6.972;2023-04-15T00:55:53;8.27;;;6.38;;
15635;SDS011;7917;50.818;6.972;2023-04-15T00:58:21;12.65;;;6.47;;
15635;SDS011;7917;50.818;6.972;2023-04-15T01:00:49;9.75;;;5.70;;
15635;SDS011;7917;50.818;6.972;2023-04-15T01:03:18;9.15;;;5.90;;
15635;SDS011;7917;50.818;6.972;2023-04-15T01:05:48;10.68;;;5.45;;
15635;SDS011;7917;50.818;6.972;2023-04-15T01:08:15;10.25;;;5.80;;
15635;SDS011;7917;50.818;6.972;2023-04-15T01:10:42;9.63;;;5.68;;
15635;SDS011;7917;50.818;6.972;2023-04-15T01:13:08;9.98;;;5.40;;
15635;SDS011;7917;50.818;6.972;2023-04-15T01:15:36;8.27;;;6.03;;
15635;SDS011;7917;50.818;6.972;2023-04-15T01:18:03;14.13;;;8.13;;
15635;SDS011;7917;50.818;6.972;2023-04-15T01:20:33;9.68;;;6.32;;
15635;SDS011;7917;50.818;6.972;2023-04-15T01:23:01;10.43;;;5.47;;
15635;SDS011;7917;50.818;6.972;2023-04-15T01:25:30;7.90;;;5.35;;
15635;SDS011;7917;50.818;6.972;2023-04-15T01:28:08;8.25;;;4.55;;
15635;SDS011;7917;50.818;6.972;2023-04-15T01:30:35;8.07;;;4.63;;
15635;SDS011;7917;50.818;6.972;2023-04-15T01:33:02;8.63;;;4.97;;
15635;SDS011;7917;50.818;6.972;2023-04-15T01:35:28;8.82;;;4.28;;
15635;SDS011;7917;50.818;6.972;2023-04-15T01:37:57;12.85;;;5.10;;
15635;SDS011;7917;50.818;6.972;2023-04-15T01:40:31;8.43;;;5.35;;
15635;SDS011;7917;50.818;6.972;2023-04-15T01:43:00;9.77;;;6.30;;
15635;SDS011;7917;50.818;6.972;2023-04-15T01:45:28;9.93;;;5.22;;
15635;SDS011;7917;50.818;6.972;2023-04-15T01:47:55;11.38;;;5.03;;
15635;SDS011;7917;50.818;6.972;2023-04-15T01:50:22;9.25;;;5.28;;
15635;SDS011;7917;50.818;6.972;2023-04-15T01:52:50;8.98;;;5.85;;
15635;SDS011;7917;50.818;6.972;2023-04-15T01:55:17;12.63;;;5.40;;
15635;SDS011;7917;50.818;6.972;2023-04-15T01:57:44;9.10;;;5.00;;
15635;SDS011;7917;50.818;6.972;2023-04-15T02:00:11;8.75;;;5.78;;
15635;SDS011;7917;50.818;6.972;2023-04-15T02:02:38;7.40;;;4.88;;
15635;SDS011;7917;50.818;6.972;2023-04-15T02:05:05;9.45;;;5.55;;
15635;SDS011;7917;50.818;6.972;2023-04-15T02:07:35;8.98;;;5.55;;
15635;SDS011;7917;50.818;6.972;2023-04-15T02:10:02;12.82;;;5.30;;
15635;SDS011;7917;50.818;6.972;2023-04-15T02:12:29;9.95;;;5.35;;
15635;SDS011;7917;50.818;6.972;2023-04-15T02:14:57;9.57;;;5.68;;
15635;SDS011;7917;50.818;6.972;2023-04-15T02:17:23;9.95;;;5.22;;
15635;SDS011;7917;50.818;6.972;2023-04-15T02:19:50;9.82;;;5.20;;
15635;SDS011;7917;50.818;6.972;2023-04-15T02:22:26;12.73;;;5.90;;
15635;SDS011;7917;50.818;6.972;2023-04-15T02:24:54;11.57;;;7.10;;
15635;SDS011;7917;50.818;6.972;2023-04-15T02:27:21;9.93;;;5.53;;
15635;SDS011;7917;50.818;6.972;2023-04-15T02:29:48;8.68;;;5.68;;
15635;SDS011;7917;50.818;6.972;2023-04-15T02:32:16;8.25;;;5.13;;
15635;SDS011;7917;50.818;6.972;2023-04-15T02:34:44;8.38;;;5.57;;
15635;SDS011;7917;50.818;6.972;2023-04-15T02:37:11;10.02;;;6.82;;
15635;SDS011;7917;50.818;6.972;2023-04-15T02:39:38;8.88;;;6.50;;
15635;SDS011;7917;50.818;6.972;2023-04-15T02:42:05;8.48;;;6.07;;
15635;SDS011;7917;50.818;6.972;2023-04-15T02:44:38;9.80;;;6.32;;
15635;SDS011;7917;50.818;6.972;2023-04-15T02:47:05;7.95;;;5.95;;
15635;SDS011;7917;50.818;6.972;2023-04-15T02:49:33;9.60;;;6.20;;
15635;SDS011;7917;50.818;6.972;2023-04-15T02:52:00;17.60;;;11.65;;
15635;SDS011;7917;50.818;6.972;2023-04-15T02:54:26;25.05;;;15.77;;
15635;SDS011;7917;50.818;6.972;2023-04-15T02:56:53;25.52;;;13.43;;
15635;SDS011;7917;50.818;6.972;2023-04-15T02:59:20;15.05;;;10.07;;
15635;SDS011;7917;50.818;6.972;2023-04-15T03:01:47;18.65;;;11.82;;
15635;SDS011;7917;50.818;6.972;2023-04-15T03:04:16;20.65;;;11.32;;
15635;SDS011;7917;50.818;6.972;2023-04-15T03:06:44;13.05;;;8.80;;
15635;SDS011;7917;50.818;6.972;2023-04-15T03:09:11;11.00;;;7.22;;
15635;SDS011;7917;50.818;6.972;2023-04-15T03:11:40;14.60;;;6.57;;
15635;SDS011;7917;50.818;6.972;2023-04-15T03:14:07;12.75;;;5.88;;
15635;SDS011;7917;50.818;6.972;2023-04-15T03:16:34;9.23;;;5.90;;
15635;SDS011;7917;50.818;6.972;2023-04-15T03:19:04;12.85;;;6.43;;
15635;SDS011;7917;50.818;6.972;2023-04-15T03:21:30;9.63;;;5.95;;
15635;SDS011;7917;50.818;6.972;2023-04-15T03:23:58;12.00;;;6.53;;
15635;SDS011;7917;50.818;6.972;2023-04-15T03:26:25;11.73;;;6.53;;
15635;SDS011;7917;50.818;6.972;2023-04-15T03:28:53;8.68;;;6.57;;
15635;SDS011;7917;50.818;6.972;2023-04-15T03:31:20;9.82;;;6.00;;
15635;SDS011;7917;50.818;6.972;2023-04-15T03:33:46;8.60;;;5.63;;
15635;SDS011;7917;50.818;6.972;2023-04-15T03:36:13;9.57;;;6.03;;
15635;SDS011;7917;50.818;6.972;2023-04-15T03:38:41;12.70;;;5.68;;
15635;SDS011;7917;50.818;6.972;2023-04-15T03:41:08;11.57;;;6.47;;
15635;SDS011;7917;50.818;6.972;2023-04-15T03:43:54;9.88;;;5.43;;
15635;SDS011;7917;50.818;6.972;2023-04-15T03:46:55;8.02;;;5.10;;
15635;SDS011;7917;50.818;6.972;2023-04-15T03:49:30;9.05;;;5.57;;
15635;SDS011;7917;50.818;6.972;2023-04-15T03:51:59;8.40;;;5.32;;
15635;SDS011;7917;50.818;6.972;2023-04-15T03:54:26;10.20;;;5.88;;
15635;SDS011;7917;50.818;6.972;2023-04-15T03:56:53;9.43;;;4.95;;
15635;SDS011;7917;50.818;6.972;2023-04-15T03:59:21;10.20;;;5.65;;
15635;SDS011;7917;50.818;6.972;2023-04-15T04:01:47;9.23;;;5.40;;
15635;SDS011;7917;50.818;6.972;2023-04-15T04:04:15;11.77;;;5.47;;
15635;SDS011;7917;50.818;6.972;2023-04-15T04:06:44;9.82;;;5.18;;
15635;SDS011;7917;50.818;6.972;2023-04-15T04:09:11;7.88;;;4.93;;
15635;SDS011;7917;50.818;6.972;2023-04-15T04:11:38;8.88;;;5.40;;
15635;SDS011;7917;50.818;6.972;2023-04-15T04:14:05;8.02;;;4.90;;
15635;SDS011;7917;50.818;6.972;2023-04-15T04:16:32;6.47;;;5.05;;
15635;SDS011;7917;50.818;6.972;2023-04-15T04:18:58;7.72;;;5.53;;
15635;SDS011;7917;50.818;6.972;2023-04-15T04:21:25;9.40;;;5.70;;
15635;SDS011;7917;50.818;6.972;2023-04-15T04:23:52;12.55;;;5.93;;
15635;SDS011;7917;50.818;6.972;2023-04-15T04:26:20;8.85;;;6.15;;
15635;SDS011;7917;50.818;6.972;2023-04-15T04:28:47;11.75;;;6.50;;
15635;SDS011;7917;50.818;6.972;2023-04-15T04:31:14;10.35;;;6.57;;
15635;SDS011;7917;50.818;6.972;2023-04-15T04:33:41;12.23;;;6.13;;
15635;SDS011;7917;50.818;6.972;2023-04-15T04:36:08;10.15;;;6.43;;
15635;SDS011;7917;50.818;6.972;2023-04-15T04:38:35;9.65;;;6.50;;
15635;SDS011;7917;50.818;6.972;2023-04-15T04:41:02;10.05;;;6.35;;
15635;SDS011;7917;50.818;6.972;2023-04-15T04:43:28;9.55;;;6.60;;
15635;SDS011;7917;50.818;6.972;2023-04-15T04:45:55;10.00;;;6.05;;
15635;SDS011;7917;50.818;6.972;2023-04-15T04:48:23;13.45;;;5.78;;
15635;SDS011;7917;50.818;6.972;2023-04-15T04:50:50;7.80;;;5.65;;
15635;SDS011;7917;50.818;6.972;2023-04-15T04:53:16;11.50;;;6.15;;
15635;SDS011;7917;50.818;6.972;2023-04-15T04:55:43;11.35;;;5.40;;
15635;SDS011;7917;50.818;6.972;2023-04-15T04:58:10;7.85;;;5.35;;
15635;SDS011;7917;50.818;6.972;2023-04-15T05:00:40;8.40;;;4.85;;
15635;SDS011;7917;50.818;6.972;2023-04-15T05:03:07;11.25;;;5.32;;
15635;SDS011;7917;50.818;6.972;2023-04-15T05:05:41;9.45;;;5.13;;
15635;SDS011;7917;50.818;6.972;2023-04-15T05:08:07;7.38;;;5.40;;
15635;SDS011;7917;50.818;6.972;2023-04-15T05:10:35;9.15;;;5.30;;
15635;SDS011;7917;50.818;6.972;2023-04-15T05:13:01;9.63;;;5.97;;
15635;SDS011;7917;50.818;6.972;2023-04-15T05:15:34;7.45;;;5.70;;
15635;SDS011;7917;50.818;6.972;2023-04-15T05:18:01;10.82;;;6.47;;
15635;SDS011;7917;50.818;6.972;2023-04-15T05:20:28;6.88;;;5.43;;
15635;SDS011;7917;50.818;6.972;2023-04-15T05:22:55;9.38;;;5.03;;
15635;SDS011;7917;50.818;6.972;2023-04-15T05:25:22;9.65;;;5.55;;
15635;SDS011;7917;50.818;6.972;2023-04-15T05:27:49;7.10;;;5.13;;
15635;SDS011;7917;50.818;6.972;2023-04-15T05:30:15;10.15;;;5.65;;
15635;SDS011;7917;50.818;6.972;2023-04-15T05:32:42;9.13;;;5.30;;
15635;SDS011;7917;50.818;6.972;2023-04-15T05:35:09;9.95;;;5.60;;
15635;SDS011;7917;50.818;6.972;2023-04-15T05:37:36;8.48;;;5.65;;
15635;SDS011;7917;50.818;6.972;2023-04-15T05:40:04;9.43;;;5.32;;
15635;SDS011;7917;50.818;6.972;2023-04-15T05:42:31;10.80;;;5.35;;
15635;SDS011;7917;50.818;6.972;2023-04-15T05:44:58;9.05;;;5.22;;
15635;SDS011;7917;50.818;6.972;2023-04-15T05:47:25;7.10;;;5.13;;
15635;SDS011;7917;50.818;6.972;2023-04-15T05:49:52;6.20;;;4.65;;
15635;SDS011;7917;50.818;6.972;2023-04-15T05:52:19;6.30;;;4.88;;
15635;SDS011;7917;50.818;6.972;2023-04-15T05:54:46;8.10;;;4.47;;
15635;SDS011;7917;50.818;6.972;2023-04-15T05:57:14;9.63;;;4.93;;
15635;SDS011;7917;50.818;6.972;2023-04-15T05:59:40;7.88;;;5.18;;
15635;SDS011;7917;50.818;6.972;2023-04-15T06:02:07;8.98;;;5.53;;
15635;SDS011;7917;50.818;6.972;2023-04-15T06:04:35;7.43;;;3.88;;
15635;SDS011;7917;50.818;6.972;2023-04-15T06:07:02;9.45;;;4.30;;
15635;SDS011;7917;50.818;6.972;2023-04-15T06:09:29;9.13;;;4.90;;
15635;SDS011;7917;50.818;6.972;2023-04-15T06:11:55;7.38;;;4.97;;
15635;SDS011;7917;50.818;6.972;2023-04-15T06:14:24;8.55;;;4.97;;
15635;SDS011;7917;50.818;6.972;2023-04-15T06:16:51;7.32;;;5.05;;
15635;SDS011;7917;50.818;6.972;2023-04-15T06:19:17;9.88;;;5.47;;
15635;SDS011;7917;50.818;6.972;2023-04-15T06:21:45;10.18;;;5.35;;
15635;SDS011;7917;50.818;6.972;2023-04-15T06:24:12;9.98;;;5.72;;
15635;SDS011;7917;50.818;6.972;2023-04-15T06:26:38;13.15;;;6.03;;
15635;SDS011;7917;50.818;6.972;2023-04-15T06:29:05;9.48;;;6.25;;
15635;SDS011;7917;50.818;6.972;2023-04-15T06:31:33;9.23;;;5.72;;
15635;SDS011;7917;50.818;6.972;2023-04-15T06:34:00;12.20;;;6.15;;
15635;SDS011;7917;50.818;6.972;2023-04-15T06:36:26;9.93;;;6.57;;
15635;SDS011;7917;50.818;6.972;2023-04-15T06:38:53;12.45;;;6.13;;
15635;SDS011;7917;50.818;6.972;2023-04-15T06:41:21;8.20;;;5.53;;
15635;SDS011;7917;50.818;6.972;2023-04-15T06:43:48;10.32;;;5.90;;
15635;SDS011;7917;50.818;6.972;2023-04-15T06:46:15;8.68;;;5.95;;
15635;SDS011;7917;50.818;6.972;2023-04-15T06:48:43;12.98;;;6.75;;
15635;SDS011;7917;50.818;6.972;2023-04-15T06:51:12;10.90;;;6.07;;
15635;SDS011;7917;50.818;6.972;2023-04-15T06:53:39;10.75;;;6.05;;
15635;SDS011;7917;50.818;6.972;2023-04-15T06:56:08;12.23;;;5.95;;
15635;SDS011;7917;50.818;6.972;2023-04-15T06:58:35;12.88;;;6.63;;
15635;SDS011;7917;50.818;6.972;2023-04-15T07:01:02;10.52;;;5.15;;
15635;SDS011;7917;50.818;6.972;2023-04-15T07:03:28;11.23;;;6.05;;
15635;SDS011;7917;50.818;6.972;2023-04-15T07:05:56;10.32;;;5.68;;
15635;SDS011;7917;50.818;6.972;2023-04-15T07:08:23;13.35;;;5.85;;
15635;SDS011;7917;50.818;6.972;2023-04-15T07:10:50;10.70;;;5.15;;
15635;SDS011;7917;50.818;6.972;2023-04-15T07:13:18;9.77;;;5.70;;
15635;SDS011;7917;50.818;6.972;2023-04-15T07:15:44;10.35;;;6.18;;
15635;SDS011;7917;50.818;6.972;2023-04-15T07:18:17;10.57;;;5.82;;
15635;SDS011;7917;50.818;6.972;2023-04-15T07:20:44;14.77;;;6.60;;
15635;SDS011;7917;50.818;6.972;2023-04-15T07:23:11;11.13;;;6.30;;
15635;SDS011;7917;50.818;6.972;2023-04-15T07:25:38;14.77;;;7.28;;
15635;SDS011;7917;50.818;6.972;2023-04-15T07:28:05;10.45;;;6.47;;
15635;SDS011;7917;50.818;6.972;2023-04-15T07:30:32;11.55;;;6.13;;
15635;SDS011;7917;50.818;6.972;2023-04-15T07:33:00;9.70;;;6.40;;
15635;SDS011;7917;50.818;6.972;2023-04-15T07:35:27;9.88;;;6.00;;
15635;SDS011;7917;50.818;6.972;2023-04-15T07:37:53;10.70;;;6.38;;
15635;SDS011;7917;50.818;6.972;2023-04-15T07:40:21;12.43;;;6.85;;
15635;SDS011;7917;50.818;6.972;2023-04-15T07:42:55;12.35;;;6.97;;
15635;SDS011;7917;50.818;6.972;2023-04-15T07:45:37;14.43;;;6.60;;
15635;SDS011;7917;50.818;6.972;2023-04-15T07:48:04;14.07;;;7.78;;
15635;SDS011;7917;50.818;6.972;2023-04-15T07:50:32;10.07;;;7.30;;
15635;SDS011;7917;50.818;6.972;2023-04-15T07:53:04;10.63;;;7.80;;
15635;SDS011;7917;50.818;6.972;2023-04-15T07:55:40;10.68;;;6.80;;
15635;SDS011;7917;50.818;6.972;2023-04-15T07:58:12;13.20;;;6.97;;
15635;SDS011;7917;50.818;6.972;2023-04-15T08:04:00;11.82;;;7.38;;
15635;SDS011;7917;50.818;6.972;2023-04-15T08:06:27;10.75;;;7.13;;
15635;SDS011;7917;50.818;6.972;2023-04-15T08:08:54;12.48;;;6.95;;
15635;SDS011;7917;50.818;6.972;2023-04-15T08:11:22;11.38;;;6.93;;
15635;SDS011;7917;50.818;6.972;2023-04-15T08:13:49;13.82;;;7.22;;
15635;SDS011;7917;50.818;6.972;2023-04-15T08:16:17;13.25;;;6.90;;
15635;SDS011;7917;50.818;6.972;2023-04-15T08:18:45;10.98;;;6.72;;
15635;SDS011;7917;50.818;6.972;2023-04-15T08:21:12;14.05;;;6.97;;
15635;SDS011;7917;50.818;6.972;2023-04-15T08:23:39;14.05;;;6.85;;
15635;SDS011;7917;50.818;6.972;2023-04-15T08:26:07;12.23;;;7.28;;
15635;SDS011;7917;50.818;6.972;2023-04-15T08:28:39;10.50;;;7.35;;
15635;SDS011;7917;50.818;6.972;2023-04-15T08:31:07;9.63;;;6.95;;
15635;SDS011;7917;50.818;6.972;2023-04-15T08:33:34;9.75;;;6.97;;
15635;SDS011;7917;50.818;6.972;2023-04-15T08:36:01;9.68;;;6.50;;
15635;SDS011;7917;50.818;6.972;2023-04-15T08:38:27;13.13;;;6.53;;
15635;SDS011;7917;50.818;6.972;2023-04-15T08:40:54;10.60;;;6.53;;
15635;SDS011;7917;50.818;6.972;2023-04-15T08:43:23;14.75;;;6.57;;
15635;SDS011;7917;50.818;6.972;2023-04-15T08:45:55;10.23;;;6.57;;
15635;SDS011;7917;50.818;6.972;2023-04-15T08:48:24;6.93;;;5.22;;
15635;SDS011;7917;50.818;6.972;2023-04-15T08:50:53;6.95;;;4.72;;
15635;SDS011;7917;50.818;6.972;2023-04-15T08:53:20;5.57;;;4.97;;
15635;SDS011;7917;50.818;6.972;2023-04-15T08:55:49;7.00;;;4.85;;
15635;SDS011;7917;50.818;6.972;2023-04-15T08:58:18;4.53;;;3.45;;
15635;SDS011;7917;50.818;6.972;2023-04-15T09:00:45;4.72;;;2.78;;
15635;SDS011;7917;50.818;6.972;2023-04-15T09:03:13;4.80;;;2.20;;
15635;SDS011;7917;50.818;6.972;2023-04-15T09:05:41;6.93;;;2.22;;
15635;SDS011;7917;50.818;6.972;2023-04-15T09:08:08;3.33;;;1.77;;
15635;SDS011;7917;50.818;6.972;2023-04-15T09:10:35;3.80;;;1.77;;
15635;SDS011;7917;50.818;6.972;2023-04-15T09:13:05;3.67;;;1.70;;
15635;SDS011;7917;50.818;6.972;2023-04-15T09:15:32;3.72;;;1.85;;
15635;SDS011;7917;50.818;6.972;2023-04-15T09:18:00;2.22;;;1.77;;
15635;SDS011;7917;50.818;6.972;2023-04-15T09:20:27;2.80;;;1.60;;
15635;SDS011;7917;50.818;6.972;2023-04-15T09:22:54;2.97;;;1.58;;
15635;SDS011;7917;50.818;6.972;2023-04-15T09:25:24;2.83;;;1.52;;
15635;SDS011;7917;50.818;6.972;2023-04-15T09:27:52;5.93;;;2.28;;
15635;SDS011;7917;50.818;6.972;2023-04-15T09:30:20;3.30;;;2.03;;
15635;SDS011;7917;50.818;6.972;2023-04-15T09:32:48;3.45;;;1.98;;
15635;SDS011;7917;50.818;6.972;2023-04-15T09:35:16;3.10;;;1.85;;
15635;SDS011;7917;50.818;6.972;2023-04-15T09:37:43;3.22;;;1.65;;
15635;SDS011;7917;50.818;6.972;2023-04-15T09:40:10;2.88;;;1.38;;
15635;SDS011;7917;50.818;6.972;2023-04-15T09:42:45;2.05;;;1.40;;
15635;SDS011;7917;50.818;6.972;2023-04-15T09:45:20;3.22;;;2.38;;
15635;SDS011;7917;50.818;6.972;2023-04-15T09:47:47;3.08;;;2.20;;
15635;SDS011;7917;50.818;6.972;2023-04-15T09:50:15;2.78;;;1.65;;
15635;SDS011;7917;50.818;6.972;2023-04-15T09:52:43;2.58;;;1.85;;
15635;SDS011;7917;50.818;6.972;2023-04-15T09:55:10;4.03;;;1.98;;
15635;SDS011;7917;50.818;6.972;2023-04-15T09:57:38;2.95;;;1.98;;
15635;SDS011;7917;50.818;6.972;2023-04-15T10:00:07;10.55;;;4.43;;
15635;SDS011;7917;50.818;6.972;2023-04-15T10:02:35;2.63;;;2.25;;
15635;SDS011;7917;50.818;6.972;2023-04-15T10:05:02;4.00;;;1.80;;
15635;SDS011;7917;50.818;6.972;2023-04-15T10:07:30;3.90;;;2.28;;
15635;SDS011;7917;50.818;6.972;2023-04-15T10:09:59;2.60;;;2.15;;
15635;SDS011;7917;50.818;6.972;2023-04-15T10:12:26;2.92;;;2.30;;
15635;SDS011;7917;50.818;6.972;2023-04-15T10:14:57;2.35;;;1.98;;
15635;SDS011;7917;50.818;6.972;2023-04-15T10:17:28;4.40;;;2.10;;
15635;SDS011;7917;50.818;6.972;2023-04-15T10:19:58;2.20;;;1.67;;
15635;SDS011;7917;50.818;6.972;2023-04-15T10:22:26;4.90;;;2.05;;
15635;SDS011;7917;50.818;6.972;2023-04-15T10:24:53;3.72;;;2.50;;
15635;SDS011;7917;50.818;6.972;2023-04-15T10:27:22;2.33;;;2.08;;
15635;SDS011;7917;50.818;6.972;2023-04-15T10:29:49;3.28;;;2.30;;
15635;SDS011;7917;50.818;6.972;2023-04-15T10:32:16;7.70;;;2.42;;
15635;SDS011;7917;50.818;6.972;2023-04-15T10:34:45;2.83;;;2.40;;
15635;SDS011;7917;50.818;6.972;2023-04-15T10:37:18;3.05;;;2.25;;
15635;SDS011;7917;50.818;6.972;2023-04-15T10:39:46;2.80;;;2.60;;
15635;SDS011;7917;50.818;6.972;2023-04-15T10:42:13;4.00;;;2.90;;
15635;SDS011;7917;50.818;6.972;2023-04-15T10:44:42;3.47;;;3.13;;
15635;SDS011;7917;50.818;6.972;2023-04-15T10:47:10;6.65;;;3.25;;
15635;SDS011;7917;50.818;6.972;2023-04-15T10:49:42;3.50;;;3.20;;
15635;SDS011;7917;50.818;6.972;2023-04-15T10:52:09;5.47;;;3.40;;
15635;SDS011;7917;50.818;6.972;2023-04-15T10:54:36;5.15;;;3.70;;
15635;SDS011;7917;50.818;6.972;2023-04-15T10:57:07;7.20;;;4.20;;
15635;SDS011;7917;50.818;6.972;2023-04-15T11:02:38;4.85;;;3.95;;
15635;SDS011;7917;50.818;6.972;2023-04-15T11:05:10;4.63;;;3.28;;
15635;SDS011;7917;50.818;6.972;2023-04-15T11:07:38;3.70;;;3.00;;
15635;SDS011;7917;50.818;6.972;2023-04-15T11:13:14;5.63;;;3.53;;
15635;SDS011;7917;50.818;6.972;2023-04-15T11:15:43;4.68;;;3.60;;
15635;SDS011;7917;50.818;6.972;2023-04-15T11:18:11;3.92;;;2.90;;
15635;SDS011;7917;50.818;6.972;2023-04-15T11:20:40;3.25;;;2.65;;
15635;SDS011;7917;50.818;6.972;2023-04-15T11:23:07;3.00;;;2.40;;
15635;SDS011;7917;50.818;6.972;2023-04-15T11:25:37;4.07;;;3.10;;
15635;SDS011;7917;50.818;6.972;2023-04-15T11:28:04;4.28;;;2.25;;
15635;SDS011;7917;50.818;6.972;2023-04-15T11:30:33;2.70;;;2.35;;
15635;SDS011;7917;50.818;6.972;2023-04-15T11:33:02;2.90;;;2.65;;
15635;SDS011;7917;50.818;6.972;2023-04-15T11:35:29;2.40;;;2.20;;
15635;SDS011;7917;50.818;6.972;2023-04-15T11:37:57;3.45;;;2.92;;
15635;SDS011;7917;50.818;6.972;2023-04-15T11:40:27;2.90;;;2.70;;
15635;SDS011;7917;50.818;6.972;2023-04-15T11:43:04;3.85;;;3.10;;
15635;SDS011;7917;50.818;6.972;2023-04-15T11:45:32;3.35;;;2.75;;
15635;SDS011;7917;50.818;6.972;2023-04-15T11:48:06;4.03;;;3.17;;
15635;SDS011;7917;50.818;6.972;2023-04-15T11:50:33;3.30;;;3.00;;
15635;SDS011;7917;50.818;6.972;2023-04-15T11:53:01;4.03;;;2.85;;
15635;SDS011;7917;50.818;6.972;2023-04-15T11:55:29;3.78;;;2.67;;
15635;SDS011;7917;50.818;6.972;2023-04-15T11:58:09;3.83;;;2.95;;
15635;SDS011;7917;50.818;6.972;2023-04-15T12:00:37;3.05;;;2.78;;
15635;SDS011;7917;50.818;6.972;2023-04-15T12:03:12;2.70;;;2.50;;
15635;SDS011;7917;50.818;6.972;2023-04-15T12:06:06;3.50;;;3.20;;
15635;SDS011;7917;50.818;6.972;2023-04-15T12:08:56;5.55;;;2.85;;
15635;SDS011;7917;50.818;6.972;2023-04-15T12:11:28;3.15;;;2.75;;
15635;SDS011;7917;50.818;6.972;2023-04-15T12:13:57;3.45;;;2.88;;
15635;SDS011;7917;50.818;6.972;2023-04-15T12:16:24;3.85;;;2.50;;
15635;SDS011;7917;50.818;6.972;2023-04-15T12:18:54;6.00;;;2.53;;
15635;SDS011;7917;50.818;6.972;2023-04-15T12:21:23;2.92;;;2.53;;
15635;SDS011;7917;50.818;6.972;2023-04-15T12:23:51;3.30;;;3.00;;
15635;SDS011;7917;50.818;6.972;2023-04-15T12:26:24;3.38;;;3.10;;
15635;SDS011;7917;50.818;6.972;2023-04-15T12:28:52;3.70;;;3.40;;
15635;SDS011;7917;50.818;6.972;2023-04-15T12:31:19;4.38;;;3.97;;
15635;SDS011;7917;50.818;6.972;2023-04-15T12:33:47;3.72;;;3.42;;
15635;SDS011;7917;50.818;6.972;2023-04-15T12:36:14;4.20;;;3.90;;
15635;SDS011;7917;50.818;6.972;2023-04-15T12:38:41;5.18;;;4.53;;
15635;SDS011;7917;50.818;6.972;2023-04-15T12:41:08;5.07;;;4.68;;
15635;SDS011;7917;50.818;6.972;2023-04-15T12:43:35;6.45;;;5.78;;
15635;SDS011;7917;50.818;6.972;2023-04-15T12:46:01;4.30;;;3.90;;
15635;SDS011;7917;50.818;6.972;2023-04-15T12:48:29;5.15;;;4.68;;
15635;SDS011;7917;50.818;6.972;2023-04-15T12:50:55;6.10;;;5.50;;
15635;SDS011;7917;50.818;6.972;2023-04-15T12:53:23;6.25;;;5.75;;
15635;SDS011;7917;50.818;6.972;2023-04-15T12:55:50;6.28;;;5.68;;
15635;SDS011;7917;50.818;6.972;2023-04-15T12:58:17;5.55;;;5.05;;
15635;SDS011;7917;50.818;6.972;2023-04-15T13:00:44;5.22;;;4.70;;
15635;SDS011;7917;50.818;6.972;2023-04-15T13:03:11;5.22;;;4.72;;
15635;SDS011;7917;50.818;6.972;2023-04-15T13:05:38;5.13;;;4.68;;
15635;SDS011;7917;50.818;6.972;2023-04-15T13:08:04;5.60;;;5.10;;
15635;SDS011;7917;50.818;6.972;2023-04-15T13:10:40;5.65;;;4.70;;
15635;SDS011;7917;50.818;6.972;2023-04-15T13:13:07;7.45;;;6.03;;
15635;SDS011;7917;50.818;6.972;2023-04-15T13:15:33;7.00;;;6.35;;
15635;SDS011;7917;50.818;6.972;2023-04-15T13:18:00;8.07;;;6.88;;
15635;SDS011;7917;50.818;6.972;2023-04-15T13:20:27;6.95;;;6.35;;
15635;SDS011;7917;50.818;6.972;2023-04-15T13:22:54;7.60;;;6.85;;
15635;SDS011;7917;50.818;6.972;2023-04-15T13:25:20;8.70;;;6.80;;
15635;SDS011;7917;50.818;6.972;2023-04-15T13:27:48;7.78;;;6.95;;
15635;SDS011;7917;50.818;6.972;2023-04-15T13:30:15;8.45;;;7.55;;
15635;SDS011;7917;50.818;6.972;2023-04-15T13:32:41;9.88;;;6.95;;
15635;SDS011;7917;50.818;6.972;2023-04-15T13:35:08;9.63;;;8.52;;
15635;SDS011;7917;50.818;6.972;2023-04-15T13:37:35;7.97;;;6.50;;
15635;SDS011;7917;50.818;6.972;2023-04-15T13:40:02;6.78;;;6.07;;
15635;SDS011;7917;50.818;6.972;2023-04-15T13:42:31;5.90;;;5.30;;
15635;SDS011;7917;50.818;6.972;2023-04-15T13:44:58;5.40;;;4.85;;
15635;SDS011;7917;50.818;6.972;2023-04-15T13:47:25;7.18;;;4.70;;
15635;SDS011;7917;50.818;6.972;2023-04-15T13:49:52;4.60;;;4.20;;
15635;SDS011;7917;50.818;6.972;2023-04-15T13:52:20;5.68;;;5.18;;
15635;SDS011;7917;50.818;6.972;2023-04-15T13:54:47;4.90;;;4.40;;
15635;SDS011;7917;50.818;6.972;2023-04-15T13:57:15;5.93;;;4.50;;
15635;SDS011;7917;50.818;6.972;2023-04-15T13:59:57;5.45;;;4.32;;
15635;SDS011;7917;50.818;6.972;2023-04-15T14:02:24;5.25;;;4.47;;
15635;SDS011;7917;50.818;6.972;2023-04-15T14:04:51;5.07;;;4.47;;
15635;SDS011;7917;50.818;6.972;2023-04-15T14:07:18;5.10;;;4.60;;
15635;SDS011;7917;50.818;6.972;2023-04-15T14:09:45;6.13;;;4.65;;
15635;SDS011;7917;50.818;6.972;2023-04-15T14:12:12;5.35;;;4.68;;
15635;SDS011;7917;50.818;6.972;2023-04-15T14:14:39;9.65;;;4.88;;
15635;SDS011;7917;50.818;6.972;2023-04-15T14:17:07;6.00;;;4.97;;
15635;SDS011;7917;50.818;6.972;2023-04-15T14:19:34;6.13;;;5.22;;
15635;SDS011;7917;50.818;6.972;2023-04-15T14:22:00;7.95;;;5.43;;
15635;SDS011;7917;50.818;6.972;2023-04-15T14:24:27;7.28;;;5.38;;
15635;SDS011;7917;50.818;6.972;2023-04-15T14:26:54;7.70;;;5.80;;
15635;SDS011;7917;50.818;6.972;2023-04-15T14:29:21;6.88;;;5.95;;
15635;SDS011;7917;50.818;6.972;2023-04-15T14:31:48;7.95;;;5.50;;
15635;SDS011;7917;50.818;6.972;2023-04-15T14:34:16;6.03;;;5.30;;
15635;SDS011;7917;50.818;6.972;2023-04-15T14:36:42;6.85;;;5.45;;
15635;SDS011;7917;50.818;6.972;2023-04-15T14:39:09;6.20;;;5.55;;
15635;SDS011;7917;50.818;6.972;2023-04-15T14:41:36;6.82;;;6.13;;
15635;SDS011;7917;50.818;6.972;2023-04-15T14:44:03;9.77;;;8.88;;
15635;SDS011;7917;50.818;6.972;2023-04-15T14:46:29;11.38;;;9.70;;
15635;SDS011;7917;50.818;6.972;2023-04-15T14:48:56;10.20;;;8.50;;
15635;SDS011;7917;50.818;6.972;2023-04-15T14:51:24;8.00;;;7.25;;
15635;SDS011;7917;50.818;6.972;2023-04-15T14:53:50;6.45;;;5.82;;
15635;SDS011;7917;50.818;6.972;2023-04-15T14:56:17;8.75;;;6.47;;
15635;SDS011;7917;50.818;6.972;2023-04-15T14:58:44;9.90;;;8.35;;
15635;SDS011;7917;50.818;6.972;2023-04-15T15:01:10;11.23;;;9.32;;
15635;SDS011;7917;50.818;6.972;2023-04-15T15:03:37;10.02;;;8.75;;
15635;SDS011;7917;50.818;6.972;2023-04-15T15:06:04;15.75;;;12.70;;
15635;SDS011;7917;50.818;6.972;2023-04-15T15:08:32;17.90;;;12.20;;
15635;SDS011;7917;50.818;6.972;2023-04-15T15:10:58;16.63;;;12.10;;
15635;SDS011;7917;50.818;6.972;2023-04-15T15:13:25;15.35;;;11.35;;